Bandar-E Anzali, Iran
Current Conditions -  °F | °C
As of 7:30 PM on Saturday 25 Oct 2014 (Local Time) from OIGG Reporting Station
Light Rain Light Rain  
Wind Chill: 61°   Ceiling: 7000
Heat Index: 61°   Visibility: 2.5mi
Dew Point: 61°   Wind: 5mph
Humidity: 100%   Direction: 60°ENE
Pressure: 30.09"   Gusts: NA
Location:  37.47°N, 49.45°E
Report Text: OIGG 251630Z 06004KT 4000 -RA FEW015CB SCT020OVC070 16/16 Q1019
Loading
Personal Weather Stations






























Interactive Weather Map
Tropical Storm Tracking
New forecast layout! Learn more

10-Day Weather Forecast

Advertisements
Track Severe Weather on mobile